createdAt,value
2023-02-28T00:07:54.927Z,15.55
2023-02-28T00:17:56.480Z,15.62
2023-02-28T00:27:57.943Z,15.66
2023-02-28T00:37:59.418Z,15.67
2023-02-28T00:48:00.932Z,15.69
2023-02-28T00:58:02.600Z,15.71
2023-02-28T01:08:04.219Z,15.71
2023-02-28T01:18:05.643Z,15.75
2023-02-28T01:28:07.085Z,15.74
2023-02-28T01:38:21.342Z,15.76
2023-02-28T01:48:32.474Z,15.80
2023-02-28T01:58:34.131Z,15.78
2023-02-28T02:08:35.519Z,15.78
2023-02-28T02:18:47.824Z,15.75
2023-02-28T02:28:57.746Z,15.59
2023-02-28T02:39:18.937Z,15.47
2023-02-28T02:49:27.229Z,15.28
2023-02-28T02:59:29.322Z,15.18
2023-02-28T03:09:33.890Z,15.08
2023-02-28T03:19:59.921Z,14.99
2023-02-28T03:30:37.255Z,14.90
2023-02-28T03:40:38.808Z,14.78
2023-02-28T03:50:48.515Z,14.65
2023-02-28T04:00:52.819Z,14.70
2023-02-28T04:11:05.262Z,14.75
2023-02-28T04:21:07.511Z,14.92
2023-02-28T04:31:09.990Z,15.06
2023-02-28T04:41:11.616Z,15.15
2023-02-28T04:51:14.263Z,15.21
2023-02-28T05:01:26.698Z,15.27
2023-02-28T05:11:35.849Z,15.31
2023-02-28T05:21:41.142Z,15.38
2023-02-28T05:31:42.540Z,15.42
2023-02-28T05:41:44.092Z,15.46
2023-02-28T05:51:45.567Z,15.48
2023-02-28T06:01:49.141Z,15.51
2023-02-28T06:11:50.807Z,15.53
2023-02-28T06:21:53.534Z,15.60
2023-02-28T06:31:55.042Z,15.61
2023-02-28T06:41:56.876Z,15.66
2023-02-28T06:51:58.692Z,15.67
2023-02-28T07:02:00.329Z,15.70
2023-02-28T07:12:01.918Z,15.77
2023-02-28T07:22:03.887Z,16.14
2023-02-28T07:32:05.500Z,16.61
2023-02-28T07:42:07.568Z,16.95
2023-02-28T07:52:10.907Z,17.28
2023-02-28T08:02:17.264Z,17.59
2023-02-28T08:12:18.860Z,17.88
2023-02-28T08:22:20.345Z,18.17
2023-02-28T08:32:29.908Z,18.42
2023-02-28T08:42:32.851Z,18.69
2023-02-28T08:52:34.398Z,18.96
2023-02-28T09:02:35.876Z,19.13
2023-02-28T09:12:37.333Z,19.21
2023-02-28T09:22:38.904Z,19.19
2023-02-28T09:32:40.303Z,19.46
2023-02-28T09:42:41.792Z,19.72
2023-02-28T09:52:43.418Z,20.45
2023-02-28T10:02:50.999Z,21.91
2023-02-28T10:12:54.572Z,20.58
2023-02-28T10:23:19.121Z,19.10
2023-02-28T10:33:24.765Z,18.85
2023-02-28T10:43:26.909Z,18.72
2023-02-28T10:53:59.712Z,18.50
2023-02-28T11:04:01.850Z,18.47
2023-02-28T11:14:06.456Z,18.22
2023-02-28T11:24:29.246Z,18.08
2023-02-28T11:34:30.695Z,17.90
2023-02-28T11:44:59.744Z,17.76
2023-02-28T11:55:10.288Z,17.64
2023-02-28T12:05:22.734Z,17.56
2023-02-28T12:15:36.378Z,17.50
2023-02-28T12:25:47.846Z,17.47
2023-02-28T12:35:50.550Z,17.38
2023-02-28T12:45:58.082Z,17.37
2023-02-28T12:56:17.290Z,17.33
2023-02-28T13:06:46.362Z,17.26
2023-02-28T13:17:17.376Z,17.24
2023-02-28T13:27:41.316Z,17.13
2023-02-28T13:37:43.928Z,17.02
2023-02-28T13:47:53.475Z,16.89
2023-02-28T13:58:13.829Z,16.79
2023-02-28T14:08:19.268Z,16.69
2023-02-28T14:18:22.973Z,16.60
2023-02-28T14:28:45.057Z,16.52
2023-02-28T14:38:57.039Z,16.44
2023-02-28T14:48:58.432Z,16.39
2023-02-28T14:58:59.849Z,16.31
2023-02-28T15:09:14.532Z,16.25
2023-02-28T15:19:45.308Z,16.20
2023-02-28T15:29:50.097Z,16.16
2023-02-28T15:39:51.551Z,16.10
2023-02-28T15:50:03.432Z,16.07
2023-02-28T16:00:06.571Z,16.01
2023-02-28T16:10:09.176Z,15.98
2023-02-28T16:20:15.658Z,15.90
2023-02-28T16:30:21.898Z,15.82
2023-02-28T16:40:26.122Z,15.78
2023-02-28T16:50:29.193Z,15.72
2023-02-28T17:00:31.972Z,15.61
2023-02-28T17:10:33.386Z,15.52
2023-02-28T17:20:34.891Z,15.45
2023-02-28T17:30:36.297Z,15.36
2023-02-28T17:40:37.718Z,15.27
2023-02-28T17:50:39.139Z,15.21
2023-02-28T18:00:40.583Z,15.13
2023-02-28T18:10:42.036Z,15.07
2023-02-28T18:20:43.456Z,15.01
2023-02-28T18:30:44.850Z,14.94
2023-02-28T18:40:59.863Z,14.88
2023-02-28T18:51:14.764Z,14.87
2023-02-28T19:01:18.091Z,14.89
2023-02-28T19:11:19.664Z,15.06
2023-02-28T19:21:22.135Z,15.22
2023-02-28T19:31:25.052Z,15.40
2023-02-28T19:41:26.970Z,15.55
2023-02-28T19:51:28.595Z,15.63
2023-02-28T20:01:30.050Z,15.76
2023-02-28T20:11:31.581Z,15.83
2023-02-28T20:21:32.970Z,15.93
2023-02-28T20:31:37.325Z,15.94
2023-02-28T20:41:38.741Z,15.96
2023-02-28T20:51:42.092Z,15.98
2023-02-28T21:01:43.728Z,15.99
2023-02-28T21:11:45.770Z,16.02
2023-02-28T21:21:48.159Z,16.00
2023-02-28T21:31:52.704Z,15.82
2023-02-28T21:41:54.339Z,15.70
2023-02-28T21:51:55.743Z,15.56
2023-02-28T22:01:57.183Z,15.44
2023-02-28T22:11:58.703Z,15.31
2023-02-28T22:22:00.101Z,15.22
2023-02-28T22:32:01.832Z,15.15
2023-02-28T22:42:03.338Z,15.03
2023-02-28T22:52:04.783Z,14.99
2023-02-28T23:02:06.162Z,14.90
2023-02-28T23:12:07.553Z,14.81
2023-02-28T23:22:08.945Z,14.71
2023-02-28T23:32:10.445Z,14.84
2023-02-28T23:42:12.033Z,14.92
2023-02-28T23:52:13.557Z,15.11
